Time;durP1;ratioP1;P1;durP2;ratioP2;P2;SDS_P1;SDS_P2;PMS_P1;PMS_P2;Temp;Humidity;BMP_temperature;BMP_pressure;BME280_temperature;BME280_humidity;BME280_pressure;Samples;Min_cycle;Max_cycle;Signal;HPM_P1;HPM_P2
2022/07/02 00:02:25;;;;;;;2.50;0.90;;;17.00;99.90;;;;;;5021708;28;20081;-88
2022/07/02 00:04:59;;;;;;;2.72;0.93;;;16.90;99.90;;;;;;5032399;28;20654;-89
2022/07/02 00:07:26;;;;;;;3.03;1.20;;;16.90;99.90;;;;;;5024464;28;20018;-88
2022/07/02 00:09:56;;;;;;;1.77;1.13;;;16.70;99.90;;;;;;5024564;28;20073;-86
2022/07/02 00:12:23;;;;;;;1.33;0.93;;;16.70;99.90;;;;;;5031492;28;20108;-87
2022/07/02 00:14:52;;;;;;;2.67;1.10;;;16.70;99.90;;;;;;5019079;28;20447;-88
2022/07/02 00:17:17;;;;;;;2.75;1.00;;;16.70;99.90;;;;;;5029724;28;20102;-86
2022/07/02 00:19:43;;;;;;;1.40;0.77;;;16.70;99.90;;;;;;5016004;28;20460;-86
2022/07/02 00:22:11;;;;;;;3.83;1.10;;;16.70;99.90;;;;;;5016901;28;20062;-88
2022/07/02 00:24:40;;;;;;;4.18;0.80;;;16.80;99.90;;;;;;5018972;28;20477;-90
2022/07/02 00:27:12;;;;;;;1.52;1.13;;;16.80;99.90;;;;;;5031050;28;20030;-88
2022/07/02 00:29:43;;;;;;;3.67;0.80;;;16.80;99.90;;;;;;5015166;28;20099;-89
2022/07/02 00:32:10;;;;;;;2.08;0.70;;;16.80;99.90;;;;;;5029415;28;20108;-88
2022/07/02 00:34:39;;;;;;;1.55;1.00;;;16.80;99.90;;;;;;5035686;28;20071;-92
2022/07/02 00:37:06;;;;;;;2.72;1.15;;;16.80;99.90;;;;;;5037197;28;20061;-88
2022/07/02 00:39:32;;;;;;;1.33;0.98;;;16.80;99.90;;;;;;5035889;28;20033;-89
2022/07/02 00:41:59;;;;;;;3.00;1.08;;;16.80;99.90;;;;;;5035852;28;20052;-88
2022/07/02 00:44:26;;;;;;;2.13;1.35;;;16.70;99.90;;;;;;5035807;28;20383;-87
2022/07/02 00:46:53;;;;;;;1.52;0.95;;;16.60;99.90;;;;;;5035506;28;20763;-88
2022/07/02 00:49:20;;;;;;;1.48;1.10;;;16.70;99.90;;;;;;5035604;28;20021;-88
2022/07/02 00:51:46;;;;;;;2.97;0.90;;;16.70;99.90;;;;;;5035120;28;20021;-88
2022/07/02 00:54:12;;;;;;;0.95;0.88;;;16.70;99.90;;;;;;5022649;28;20109;-88
2022/07/02 00:56:37;;;;;;;1.65;1.10;;;16.70;99.90;;;;;;5034256;28;20116;-89
2022/07/02 00:59:04;;;;;;;2.03;0.82;;;16.70;99.90;;;;;;5036639;28;20072;-88
2022/07/02 01:01:30;;;;;;;2.25;1.23;;;16.70;99.90;;;;;;5035802;28;20084;-88
2022/07/02 01:03:57;;;;;;;3.83;1.17;;;16.70;99.90;;;;;;5034878;28;20060;-88
2022/07/02 01:06:25;;;;;;;1.27;1.00;;;16.60;99.90;;;;;;5035516;28;20478;-88
2022/07/02 01:11:39;;;;;;;1.50;0.80;;;16.50;99.90;;;;;;5026533;28;20080;-89
2022/07/02 01:14:05;;;;;;;1.48;0.63;;;16.50;99.90;;;;;;5015166;28;20103;-89
2022/07/02 01:16:31;;;;;;;1.50;0.90;;;16.50;99.90;;;;;;5031544;28;20470;-88
2022/07/02 01:18:56;;;;;;;1.77;0.80;;;16.50;99.90;;;;;;5030596;28;20045;-88
2022/07/02 01:21:22;;;;;;;1.08;0.98;;;16.40;99.90;;;;;;5014891;28;20030;-88
2022/07/02 01:23:48;;;;;;;2.72;0.82;;;16.40;99.90;;;;;;5024942;28;20474;-88
2022/07/02 01:26:13;;;;;;;2.30;0.88;;;16.40;99.90;;;;;;5036153;28;20104;-88
2022/07/02 01:28:39;;;;;;;0.98;0.77;;;16.30;99.90;;;;;;5034861;28;20493;-88
2022/07/02 01:31:04;;;;;;;1.65;0.88;;;16.10;99.90;;;;;;5035113;28;20021;-88
2022/07/02 01:33:31;;;;;;;2.65;0.80;;;16.20;99.90;;;;;;5035030;28;20030;-88
2022/07/02 01:35:58;;;;;;;2.97;1.00;;;16.10;99.90;;;;;;5036397;28;20056;-88
2022/07/02 01:38:23;;;;;;;1.33;0.80;;;16.10;99.90;;;;;;5036377;28;20403;-88
2022/07/02 01:40:49;;;;;;;1.25;1.00;;;16.00;99.90;;;;;;5035616;28;20029;-88
2022/07/02 01:43:14;;;;;;;1.52;0.73;;;16.00;99.90;;;;;;5035379;28;20025;-88
2022/07/02 01:45:40;;;;;;;1.95;0.80;;;16.00;99.90;;;;;;5035078;28;20064;-88
2022/07/02 01:48:06;;;;;;;3.13;1.02;;;16.00;99.90;;;;;;5036103;28;20100;-88
2022/07/02 01:50:35;;;;;;;1.50;0.70;;;16.00;99.90;;;;;;5036341;28;20104;-89
2022/07/02 01:53:01;;;;;;;1.27;0.80;;;16.00;99.90;;;;;;5034477;28;20048;-88
2022/07/02 01:55:27;;;;;;;2.15;0.88;;;16.10;99.90;;;;;;5034603;28;20029;-88
2022/07/02 01:57:53;;;;;;;5.00;0.98;;;16.10;99.90;;;;;;5034101;28;20188;-87
2022/07/02 02:00:19;;;;;;;1.73;0.73;;;16.00;99.90;;;;;;5035996;28;20492;-87
2022/07/02 02:02:44;;;;;;;0.98;0.85;;;15.90;99.90;;;;;;5035668;28;20568;-88
2022/07/02 02:05:10;;;;;;;1.33;0.80;;;15.90;99.90;;;;;;5034556;28;20049;-87
2022/07/02 02:07:36;;;;;;;2.67;0.80;;;15.90;99.90;;;;;;5035182;28;20021;-90
2022/07/02 02:10:01;;;;;;;0.70;0.70;;;15.90;99.90;;;;;;5034193;28;20489;-88
2022/07/02 02:12:27;;;;;;;1.67;0.70;;;15.80;99.90;;;;;;5034610;28;20056;-88
2022/07/02 02:14:53;;;;;;;2.30;0.60;;;15.70;99.90;;;;;;5033621;28;20029;-88
2022/07/02 02:17:18;;;;;;;1.08;0.80;;;15.80;99.90;;;;;;5034163;28;20041;-87
2022/07/02 02:19:44;;;;;;;2.03;0.93;;;15.80;99.90;;;;;;5033845;28;20026;-88
2022/07/02 02:22:09;;;;;;;3.80;1.00;;;15.80;99.90;;;;;;5034272;28;20029;-87
2022/07/02 02:24:35;;;;;;;5.82;1.00;;;15.80;99.90;;;;;;5033703;28;20030;-90
2022/07/02 02:27:01;;;;;;;1.52;1.00;;;15.80;99.90;;;;;;5014571;28;20113;-85
2022/07/02 02:29:28;;;;;;;1.50;0.90;;;15.80;99.90;;;;;;5014859;28;20386;-88
2022/07/02 02:31:53;;;;;;;2.97;0.90;;;15.80;99.90;;;;;;5015112;28;20180;-87
2022/07/02 02:34:19;;;;;;;1.15;0.85;;;15.80;99.90;;;;;;5014362;28;20501;-87
2022/07/02 02:36:44;;;;;;;1.50;0.70;;;15.80;99.90;;;;;;5014183;28;20540;-87
2022/07/02 02:39:10;;;;;;;1.80;1.00;;;15.70;99.90;;;;;;5015632;28;20030;-88
2022/07/02 02:41:37;;;;;;;2.08;0.90;;;15.70;99.90;;;;;;5013567;28;20030;-89
2022/07/02 02:44:02;;;;;;;4.57;0.60;;;15.70;99.90;;;;;;5021225;28;20474;-88
2022/07/02 02:46:28;;;;;;;3.92;0.70;;;15.60;99.90;;;;;;5018613;28;20037;-87
2022/07/02 02:48:54;;;;;;;1.50;1.00;;;15.70;99.90;;;;;;5013453;28;20615;-87
2022/07/02 02:51:19;;;;;;;1.30;0.90;;;15.60;99.90;;;;;;5014084;28;20036;-87
2022/07/02 02:53:45;;;;;;;1.33;0.77;;;15.60;99.90;;;;;;5013248;28;20040;-88
2022/07/02 02:56:12;;;;;;;1.95;0.80;;;15.60;99.90;;;;;;5015433;28;20364;-88
2022/07/02 02:58:38;;;;;;;1.15;0.85;;;15.60;99.90;;;;;;5014603;28;20037;-88
2022/07/02 03:01:04;;;;;;;2.88;0.88;;;15.60;99.90;;;;;;5034533;28;20084;-88
2022/07/02 03:03:30;;;;;;;1.48;0.77;;;15.60;99.90;;;;;;5025391;28;20034;-87
2022/07/02 03:05:56;;;;;;;1.40;1.00;;;15.50;99.90;;;;;;5013215;28;20646;-88
2022/07/02 03:08:22;;;;;;;2.17;0.70;;;15.50;99.90;;;;;;5013750;28;20033;-87
2022/07/02 03:10:47;;;;;;;2.20;0.77;;;15.50;99.90;;;;;;5013140;28;20072;-88
2022/07/02 03:13:14;;;;;;;1.42;0.80;;;15.50;99.90;;;;;;5014883;28;20486;-87
2022/07/02 03:15:40;;;;;;;2.45;0.70;;;15.50;99.90;;;;;;5014065;28;20054;-88
2022/07/02 03:18:06;;;;;;;1.17;0.70;;;15.40;99.90;;;;;;5013322;28;20088;-87
2022/07/02 03:20:32;;;;;;;1.98;0.63;;;15.50;99.90;;;;;;5029924;28;20021;-88
2022/07/02 03:22:58;;;;;;;1.23;0.80;;;15.40;99.90;;;;;;5033074;28;20025;-87
2022/07/02 03:25:24;;;;;;;5.00;1.05;;;15.50;99.90;;;;;;5033013;28;20029;-87
2022/07/02 03:27:49;;;;;;;2.30;0.80;;;15.50;99.90;;;;;;5033905;28;20021;-88
2022/07/02 03:30:15;;;;;;;1.70;0.70;;;15.30;99.90;;;;;;5033157;28;20025;-86
2022/07/02 03:32:41;;;;;;;2.72;1.30;;;15.30;99.90;;;;;;5032819;28;20105;-88
2022/07/02 03:35:07;;;;;;;2.15;0.80;;;15.30;99.90;;;;;;5033822;28;20022;-87
2022/07/02 03:37:32;;;;;;;1.75;0.90;;;15.20;99.90;;;;;;5034317;28;20025;-91
2022/07/02 03:39:58;;;;;;;1.08;0.65;;;15.30;99.90;;;;;;5034174;28;20480;-87
2022/07/02 03:42:24;;;;;;;2.45;0.80;;;15.30;99.90;;;;;;5033388;28;20033;-87
2022/07/02 03:44:50;;;;;;;0.77;0.70;;;15.30;99.90;;;;;;5021827;28;20488;-87
2022/07/02 03:47:15;;;;;;;3.33;0.90;;;15.30;99.90;;;;;;5028162;28;20044;-87
2022/07/02 03:49:41;;;;;;;2.83;0.73;;;15.30;99.90;;;;;;5021712;28;20076;-88
2022/07/02 03:52:07;;;;;;;2.35;0.82;;;15.30;99.90;;;;;;5019325;28;20034;-88
2022/07/02 03:54:33;;;;;;;0.70;0.60;;;15.30;99.90;;;;;;5025532;28;20036;-90
2022/07/02 03:56:58;;;;;;;0.77;0.60;;;15.30;99.90;;;;;;5021301;28;20068;-88
2022/07/02 03:59:24;;;;;;;1.33;0.80;;;15.30;99.90;;;;;;5019999;28;20464;-88
2022/07/02 04:01:50;;;;;;;2.70;1.00;;;15.20;99.90;;;;;;5030444;28;20448;-88
2022/07/02 04:04:16;;;;;;;3.88;0.82;;;15.20;99.90;;;;;;5026374;28;20038;-88
2022/07/02 04:06:42;;;;;;;1.27;0.85;;;15.20;99.90;;;;;;5032604;28;20478;-88
2022/07/02 04:09:07;;;;;;;2.10;1.00;;;15.10;99.90;;;;;;5019815;28;20386;-88
2022/07/02 04:11:33;;;;;;;0.98;0.70;;;15.10;99.90;;;;;;5013149;28;20045;-88
2022/07/02 04:13:59;;;;;;;2.25;0.90;;;15.10;99.90;;;;;;5012827;28;20034;-87
2022/07/02 04:16:24;;;;;;;1.08;0.60;;;15.20;99.90;;;;;;5029872;28;20470;-88
2022/07/02 04:18:50;;;;;;;1.05;0.60;;;15.20;99.90;;;;;;5029731;28;20037;-87
2022/07/02 04:21:16;;;;;;;2.28;1.08;;;15.20;99.90;;;;;;5013513;28;20022;-87
2022/07/02 04:23:41;;;;;;;3.15;0.75;;;15.20;99.90;;;;;;5028847;28;20455;-87
2022/07/02 04:26:07;;;;;;;2.55;0.73;;;15.20;99.90;;;;;;5034194;28;20025;-87
2022/07/02 04:28:33;;;;;;;1.92;0.95;;;15.10;99.90;;;;;;5016517;28;20073;-92
2022/07/02 04:30:58;;;;;;;2.70;0.93;;;15.10;99.90;;;;;;5012839;28;20049;-87
2022/07/02 04:33:24;;;;;;;4.35;1.02;;;15.00;99.90;;;;;;5013948;28;20072;-87
2022/07/02 04:35:49;;;;;;;3.40;0.80;;;15.10;99.90;;;;;;5012538;28;20045;-87
2022/07/02 04:38:17;;;;;;;3.92;0.85;;;15.10;99.90;;;;;;5014598;28;20044;-87
2022/07/02 04:40:43;;;;;;;2.60;1.00;;;15.10;99.90;;;;;;5027116;28;20037;-88
2022/07/02 04:43:08;;;;;;;1.13;0.90;;;15.10;99.90;;;;;;5036780;28;20034;-87
2022/07/02 04:45:34;;;;;;;1.42;0.73;;;15.10;99.90;;;;;;5036778;28;20479;-90
2022/07/02 04:48:00;;;;;;;1.73;0.80;;;15.10;99.90;;;;;;5035264;28;20121;-87
2022/07/02 04:50:25;;;;;;;1.02;0.70;;;15.20;99.90;;;;;;5035592;28;20025;-87
2022/07/02 04:52:51;;;;;;;1.13;0.70;;;15.20;99.90;;;;;;5026241;28;20034;-87
2022/07/02 04:55:17;;;;;;;1.83;1.10;;;15.20;99.90;;;;;;5023876;28;20470;-87
2022/07/02 04:57:42;;;;;;;2.15;0.82;;;15.20;99.90;;;;;;5018611;28;20037;-87
2022/07/02 05:00:09;;;;;;;1.20;0.70;;;15.20;99.90;;;;;;5031243;28;20084;-88
2022/07/02 05:02:37;;;;;;;2.85;0.80;;;15.30;99.90;;;;;;5015804;28;20113;-91
2022/07/02 05:05:04;;;;;;;1.15;0.70;;;15.30;99.90;;;;;;5023121;28;20025;-87
2022/07/02 05:07:30;;;;;;;1.55;0.70;;;15.30;99.90;;;;;;5027688;28;20025;-87
2022/07/02 05:09:57;;;;;;;1.10;0.77;;;15.30;99.90;;;;;;5019663;28;20029;-87
2022/07/02 05:12:23;;;;;;;1.50;0.80;;;15.40;99.90;;;;;;5036263;28;20022;-87
2022/07/02 05:14:48;;;;;;;2.75;0.75;;;15.40;99.90;;;;;;5034895;28;20045;-87
2022/07/02 05:17:14;;;;;;;1.00;0.80;;;15.50;99.90;;;;;;5034859;28;20030;-87
2022/07/02 05:19:40;;;;;;;4.70;0.80;;;15.50;99.90;;;;;;5032679;28;20026;-87
2022/07/02 05:22:05;;;;;;;0.70;0.60;;;15.60;99.90;;;;;;5025347;28;20028;-87
2022/07/02 05:24:31;;;;;;;3.72;0.80;;;15.60;99.90;;;;;;5031198;28;20054;-87
2022/07/02 05:26:56;;;;;;;3.90;0.77;;;15.70;99.90;;;;;;5032293;28;20022;-85
2022/07/02 05:29:22;;;;;;;1.48;0.70;;;15.80;99.90;;;;;;5022288;28;20351;-85
2022/07/02 05:31:48;;;;;;;1.60;0.80;;;15.70;99.90;;;;;;5025108;28;20034;-86
2022/07/02 05:34:13;;;;;;;2.78;0.73;;;15.80;99.90;;;;;;5029299;28;20022;-85
2022/07/02 05:36:39;;;;;;;1.77;0.60;;;15.90;99.90;;;;;;5035185;28;20034;-88
2022/07/02 05:39:04;;;;;;;1.40;0.75;;;16.00;99.90;;;;;;5031165;28;20025;-87
2022/07/02 05:41:30;;;;;;;0.70;0.60;;;16.10;99.90;;;;;;5023807;28;20064;-87
2022/07/02 05:43:56;;;;;;;3.30;0.63;;;16.10;99.90;;;;;;5035613;28;20518;-88
2022/07/02 05:46:21;;;;;;;1.05;0.47;;;16.20;99.90;;;;;;5035223;28;20021;-87
2022/07/02 05:48:47;;;;;;;1.70;0.90;;;16.20;99.90;;;;;;5034136;28;20057;-87
2022/07/02 05:51:12;;;;;;;1.35;1.02;;;16.20;99.90;;;;;;5034622;28;20021;-88
2022/07/02 05:53:38;;;;;;;1.48;0.80;;;16.30;99.90;;;;;;5020065;28;20088;-88
2022/07/02 05:56:04;;;;;;;1.23;0.60;;;16.40;99.90;;;;;;5015990;28;20029;-88
2022/07/02 05:58:30;;;;;;;1.15;0.90;;;16.50;99.90;;;;;;5015854;28;20100;-87
2022/07/02 06:00:55;;;;;;;1.38;0.70;;;16.50;99.90;;;;;;5014656;28;20064;-87
2022/07/02 06:03:21;;;;;;;2.08;0.90;;;16.60;99.90;;;;;;5016057;28;20034;-88
2022/07/02 06:08:31;;;;;;;1.13;0.90;;;16.70;99.90;;;;;;5035521;28;20036;-89
2022/07/02 06:10:56;;;;;;;2.10;0.68;;;16.80;99.90;;;;;;5033947;28;20034;-87
2022/07/02 06:13:22;;;;;;;3.15;1.05;;;16.80;99.90;;;;;;5034663;28;20041;-86
2022/07/02 06:15:48;;;;;;;1.27;0.70;;;16.80;99.90;;;;;;5031650;28;20245;-86
2022/07/02 06:18:13;;;;;;;1.52;0.80;;;16.90;99.90;;;;;;5014990;28;20030;-88
2022/07/02 06:20:39;;;;;;;2.45;0.68;;;17.00;99.90;;;;;;5025044;28;20466;-88
2022/07/02 06:23:05;;;;;;;0.75;0.57;;;17.00;99.90;;;;;;5034155;28;20029;-88
2022/07/02 06:25:31;;;;;;;3.13;0.73;;;17.00;99.90;;;;;;5035103;28;20088;-87
2022/07/02 06:27:57;;;;;;;1.70;0.70;;;17.10;99.90;;;;;;5035378;28;20132;-86
2022/07/02 06:30:23;;;;;;;1.25;0.65;;;17.20;99.90;;;;;;5033828;28;20116;-87
2022/07/02 06:32:49;;;;;;;1.80;0.50;;;17.20;99.90;;;;;;5033835;28;20079;-86
2022/07/02 06:35:15;;;;;;;1.75;0.70;;;17.20;99.90;;;;;;5027834;28;20022;-87
2022/07/02 06:37:40;;;;;;;1.55;0.70;;;17.30;99.90;;;;;;5014818;28;20026;-87
2022/07/02 06:40:07;;;;;;;1.20;0.75;;;17.30;99.90;;;;;;5023746;28;20459;-87
2022/07/02 06:42:33;;;;;;;1.80;0.60;;;17.40;99.90;;;;;;5025185;28;20033;-88
2022/07/02 06:44:59;;;;;;;0.75;0.70;;;17.50;99.90;;;;;;5027340;28;20492;-88
2022/07/02 06:47:26;;;;;;;2.75;1.25;;;17.50;99.90;;;;;;5022708;28;20045;-88
2022/07/02 06:49:55;;;;;;;1.65;0.75;;;17.60;99.90;;;;;;5014271;28;20087;-87
2022/07/02 06:52:21;;;;;;;3.47;1.13;;;17.60;99.90;;;;;;5017166;28;20037;-87
2022/07/02 06:54:47;;;;;;;2.80;1.40;;;17.70;99.90;;;;;;5016076;28;20026;-88
2022/07/02 06:57:13;;;;;;;3.33;0.90;;;17.80;99.90;;;;;;5018464;28;20125;-87
2022/07/02 06:59:39;;;;;;;2.15;0.80;;;17.80;99.90;;;;;;5023420;28;20053;-89
2022/07/02 07:02:05;;;;;;;2.95;1.15;;;17.90;99.90;;;;;;5020032;28;20025;-88
2022/07/02 07:04:32;;;;;;;1.23;1.10;;;17.90;99.90;;;;;;5013586;28;20030;-88
2022/07/02 07:07:00;;;;;;;1.77;0.77;;;18.00;99.90;;;;;;5013236;28;20084;-88
2022/07/02 07:09:28;;;;;;;3.00;1.50;;;18.00;99.90;;;;;;5020454;28;20017;-87
2022/07/02 07:11:54;;;;;;;3.13;0.70;;;18.10;99.90;;;;;;5017067;28;20039;-87
2022/07/02 07:14:20;;;;;;;4.25;0.60;;;18.10;99.90;;;;;;5026070;28;20037;-86
2022/07/02 07:16:46;;;;;;;2.53;0.85;;;18.20;99.90;;;;;;5014446;28;20030;-88
2022/07/02 07:19:12;;;;;;;1.15;0.55;;;18.30;99.90;;;;;;5019920;28;20048;-87
2022/07/02 07:21:40;;;;;;;1.08;0.60;;;18.40;99.90;;;;;;5014490;28;20033;-91
2022/07/02 07:24:07;;;;;;;1.63;0.68;;;18.50;99.90;;;;;;5032428;28;20386;-86
2022/07/02 07:26:33;;;;;;;2.90;0.75;;;18.50;99.90;;;;;;5034158;28;20030;-87
2022/07/02 07:29:02;;;;;;;1.25;0.60;;;18.60;99.90;;;;;;5032861;28;20462;-87
2022/07/02 07:31:28;;;;;;;3.47;0.90;;;18.60;99.90;;;;;;5033127;28;20105;-87
2022/07/02 07:33:56;;;;;;;2.90;1.00;;;18.70;99.90;;;;;;5032547;28;20228;-87
2022/07/02 07:36:23;;;;;;;1.77;0.82;;;18.80;99.90;;;;;;5033126;28;20026;-87
2022/07/02 07:38:50;;;;;;;0.98;0.55;;;18.90;99.90;;;;;;5021074;28;20442;-87
2022/07/02 07:41:17;;;;;;;1.25;0.60;;;18.90;99.90;;;;;;5012945;28;20045;-86
2022/07/02 07:43:42;;;;;;;1.60;0.90;;;19.00;99.90;;;;;;5022367;28;20030;-86
2022/07/02 07:46:08;;;;;;;2.55;0.70;;;19.00;99.90;;;;;;5032856;28;20109;-87
2022/07/02 07:48:34;;;;;;;1.88;0.57;;;19.00;99.90;;;;;;5032180;28;20454;-88
2022/07/02 07:51:00;;;;;;;1.95;0.60;;;19.00;99.90;;;;;;5030238;28;20046;-87
2022/07/02 07:53:26;;;;;;;1.73;0.95;;;19.10;99.90;;;;;;5017096;28;20026;-87
2022/07/02 07:55:52;;;;;;;1.45;0.60;;;19.20;99.90;;;;;;5012717;28;20030;-87
2022/07/02 07:58:18;;;;;;;2.08;0.70;;;19.30;99.90;;;;;;5014185;28;20030;-87
2022/07/02 08:00:46;;;;;;;1.73;0.77;;;19.40;99.90;;;;;;5029009;28;20484;-87
2022/07/02 08:03:17;;;;;;;2.88;0.50;;;19.50;99.90;;;;;;5021664;28;20022;-87
2022/07/02 08:05:46;;;;;;;0.57;0.45;;;19.50;99.90;;;;;;5015762;28;20036;-88
2022/07/02 08:08:12;;;;;;;10.10;4.13;;;19.60;99.90;;;;;;5013367;28;20056;-87
2022/07/02 08:10:38;;;;;;;2.80;1.42;;;19.70;99.90;;;;;;5012680;28;20038;-88
2022/07/02 08:13:04;;;;;;;27.38;12.57;;;19.80;99.90;;;;;;5018728;28;20359;-85
2022/07/02 08:15:29;;;;;;;11.68;4.10;;;19.80;99.90;;;;;;5036513;28;20037;-85
2022/07/02 08:17:55;;;;;;;4.38;1.67;;;19.90;99.90;;;;;;5036064;28;20025;-85
2022/07/02 08:20:21;;;;;;;3.80;2.22;;;19.90;99.90;;;;;;5036249;28;20053;-85
2022/07/02 08:22:47;;;;;;;4.07;0.98;;;20.00;99.90;;;;;;5028551;28;20075;-85
2022/07/02 08:25:14;;;;;;;2.72;0.52;;;20.00;99.90;;;;;;5031005;28;20466;-85
2022/07/02 08:27:43;;;;;;;3.95;0.93;;;20.10;99.90;;;;;;5018412;28;20029;-85
2022/07/02 08:30:09;;;;;;;1.73;0.70;;;20.10;99.90;;;;;;5029707;28;20030;-85
2022/07/02 08:32:36;;;;;;;0.40;0.40;;;20.20;99.90;;;;;;5036052;28;20485;-88
2022/07/02 08:35:03;;;;;;;0.63;0.50;;;20.30;99.90;;;;;;5028181;28;20021;-85
2022/07/02 08:37:30;;;;;;;2.08;0.30;;;20.40;99.90;;;;;;5037094;28;20414;-85
2022/07/02 08:39:55;;;;;;;0.60;0.30;;;20.30;99.90;;;;;;5035639;28;20040;-85
2022/07/02 08:42:27;;;;;;;0.70;0.32;;;20.30;99.80;;;;;;5037166;28;20021;-85
2022/07/02 08:44:56;;;;;;;0.82;0.30;;;20.40;98.90;;;;;;5023262;28;20054;-87
2022/07/02 08:47:22;;;;;;;1.50;0.47;;;20.40;99.00;;;;;;5015996;28;20022;-86
2022/07/02 08:49:51;;;;;;;0.47;0.40;;;20.40;98.90;;;;;;5025899;28;20032;-87
2022/07/02 08:52:18;;;;;;;4.53;0.47;;;20.50;99.40;;;;;;5032152;28;20049;-88
2022/07/02 08:54:45;;;;;;;0.60;0.43;;;20.60;98.10;;;;;;5024639;28;20056;-86
2022/07/02 08:57:49;;;;;;;1.85;0.35;;;20.70;97.50;;;;;;5021188;28;20030;-86
2022/07/02 09:00:17;;;;;;;0.30;0.30;;;20.60;96.80;;;;;;5022673;28;20044;-89
2022/07/02 09:02:44;;;;;;;0.73;0.43;;;20.70;97.30;;;;;;5015357;28;20080;-88
2022/07/02 09:05:11;;;;;;;1.27;0.40;;;20.70;96.90;;;;;;5021781;28;20029;-88
2022/07/02 09:07:39;;;;;;;0.40;0.28;;;20.70;95.90;;;;;;5023930;28;20075;-88
2022/07/02 09:10:06;;;;;;;0.20;0.20;;;20.80;96.80;;;;;;5023156;28;20097;-89
2022/07/02 09:12:32;;;;;;;0.43;0.20;;;20.80;96.00;;;;;;5030332;28;20040;-90
2022/07/02 09:14:58;;;;;;;0.30;0.30;;;20.90;96.50;;;;;;5019190;28;20033;-86
2022/07/02 09:17:24;;;;;;;2.10;0.47;;;20.90;96.20;;;;;;5026785;28;20017;-87
2022/07/02 09:19:50;;;;;;;0.30;0.30;;;20.90;96.30;;;;;;5024876;28;20029;-88
2022/07/02 09:22:16;;;;;;;0.73;0.30;;;21.00;96.20;;;;;;5027505;28;20017;-89
2022/07/02 09:24:43;;;;;;;0.80;0.40;;;21.00;95.70;;;;;;5023515;28;20025;-87
2022/07/02 09:27:11;;;;;;;0.98;0.40;;;21.10;95.50;;;;;;5014919;28;20379;-88
2022/07/02 09:29:48;;;;;;;1.35;0.45;;;21.20;94.60;;;;;;5017215;28;20053;-87
2022/07/02 09:32:15;;;;;;;0.20;0.20;;;21.20;95.20;;;;;;5027767;28;20022;-87
2022/07/02 09:34:50;;;;;;;0.57;0.50;;;21.30;95.30;;;;;;5023071;28;20030;-87
2022/07/02 09:37:17;;;;;;;0.40;0.40;;;21.30;96.10;;;;;;5026759;28;20025;-87
2022/07/02 09:39:44;;;;;;;0.38;0.30;;;21.40;95.40;;;;;;5032521;28;20034;-87
2022/07/02 09:42:11;;;;;;;1.65;0.28;;;21.50;95.10;;;;;;5015708;28;20037;-86
2022/07/02 09:44:47;;;;;;;0.38;0.35;;;21.40;95.30;;;;;;5030196;28;20073;-88
2022/07/02 09:47:13;;;;;;;0.80;0.50;;;21.50;94.30;;;;;;5015124;28;20109;-87
2022/07/02 09:49:49;;;;;;;0.40;0.20;;;21.50;94.60;;;;;;5023466;28;20045;-88
2022/07/02 09:52:18;;;;;;;1.95;0.50;;;21.50;95.50;;;;;;5019726;28;20029;-88
2022/07/02 09:54:44;;;;;;;2.15;0.30;;;21.50;94.90;;;;;;5022394;28;20025;-87
2022/07/02 09:57:11;;;;;;;0.25;0.20;;;21.60;95.60;;;;;;5019513;28;20463;-87
2022/07/02 09:59:38;;;;;;;0.45;0.40;;;21.60;94.70;;;;;;5023720;28;20036;-88
2022/07/02 10:02:04;;;;;;;0.40;0.38;;;21.60;94.90;;;;;;5021889;28;20022;-86
2022/07/02 10:04:33;;;;;;;0.60;0.30;;;21.60;94.90;;;;;;5021170;28;20034;-85
2022/07/02 10:07:00;;;;;;;0.52;0.40;;;21.70;94.60;;;;;;5020039;28;20038;-87
2022/07/02 10:09:27;;;;;;;0.25;0.25;;;21.70;94.70;;;;;;5021268;28;20049;-87
2022/07/02 10:11:54;;;;;;;0.60;0.40;;;21.90;94.40;;;;;;5023651;28;20026;-86
2022/07/02 10:14:21;;;;;;;1.55;0.30;;;22.00;94.50;;;;;;5022888;28;20053;-87
2022/07/02 10:16:51;;;;;;;1.85;0.30;;;22.10;93.90;;;;;;5024298;28;20025;-86
2022/07/02 10:19:18;;;;;;;0.60;0.30;;;22.20;93.60;;;;;;5019839;28;20030;-87
2022/07/02 10:21:47;;;;;;;0.60;0.20;;;22.10;93.40;;;;;;5013707;28;20056;-87
2022/07/02 10:24:13;;;;;;;3.50;0.22;;;22.00;93.50;;;;;;5014084;28;20068;-88
2022/07/02 10:26:39;;;;;;;0.80;0.32;;;22.00;93.80;;;;;;5024108;28;20030;-91
2022/07/02 10:29:05;;;;;;;0.38;0.20;;;22.00;92.70;;;;;;5033850;28;20112;-88
2022/07/02 10:31:42;;;;;;;0.73;0.40;;;22.10;93.00;;;;;;5016556;28;20069;-86
2022/07/02 10:34:36;;;;;;;0.20;0.20;;;22.20;93.10;;;;;;5019350;28;20033;-88
2022/07/02 10:37:01;;;;;;;0.80;0.35;;;22.30;92.20;;;;;;5013460;28;20057;-88
2022/07/02 10:39:41;;;;;;;0.90;0.40;;;22.30;92.40;;;;;;5013811;28;20033;-86
2022/07/02 10:42:07;;;;;;;0.85;0.30;;;22.50;92.00;;;;;;5027813;28;20075;-87
2022/07/02 10:44:40;;;;;;;1.15;0.20;;;22.60;91.80;;;;;;5034070;28;20041;-87
2022/07/02 10:47:24;;;;;;;0.40;0.40;;;22.80;91.30;;;;;;5022354;28;20030;-86
2022/07/02 10:49:59;;;;;;;0.82;0.32;;;22.70;90.50;;;;;;5017577;28;20025;-86
2022/07/02 10:52:51;;;;;;;0.50;0.30;;;22.70;88.10;;;;;;5027870;28;20117;-85
2022/07/02 10:55:29;;;;;;;;;;;22.60;89.90;;;;;;5019371;28;20059;-87
2022/07/02 10:57:59;;;;;;;0.65;0.20;;;22.80;90.40;;;;;;5020007;28;20377;-87
2022/07/02 11:00:27;;;;;;;1.20;0.30;;;22.70;88.80;;;;;;5028559;28;20047;-87
2022/07/02 11:02:52;;;;;;;0.45;0.20;;;22.80;90.60;;;;;;5022429;28;20093;-87
2022/07/02 11:05:18;;;;;;;1.75;0.68;;;22.90;90.30;;;;;;5021711;28;20136;-89
2022/07/02 11:07:44;;;;;;;1.20;0.30;;;23.00;89.60;;;;;;5025329;28;20057;-89
2022/07/02 11:10:10;;;;;;;1.55;0.40;;;23.00;89.90;;;;;;5025962;28;20029;-88
2022/07/02 11:12:57;;;;;;;0.50;0.30;;;23.10;88.60;;;;;;5023805;28;20030;-88
2022/07/02 11:15:35;;;;;;;2.10;0.30;;;23.10;88.60;;;;;;5014420;28;20038;-87
2022/07/02 11:18:05;;;;;;;1.88;0.43;;;23.20;87.90;;;;;;5018049;28;20021;-88
2022/07/02 11:20:35;;;;;;;1.67;0.40;;;23.20;88.60;;;;;;5032873;28;20043;-87
2022/07/02 11:23:00;;;;;;;0.68;0.30;;;23.30;88.30;;;;;;5022480;28;20037;-87
2022/07/02 11:25:29;;;;;;;0.65;0.20;;;23.30;88.90;;;;;;5029536;28;20025;-88
2022/07/02 11:28:02;;;;;;;0.30;0.20;;;23.50;87.90;;;;;;5032527;28;20230;-88
2022/07/02 11:30:30;;;;;;;2.20;0.40;;;23.60;87.60;;;;;;5032669;28;20053;-89
2022/07/02 11:32:56;;;;;;;0.38;0.20;;;23.70;86.70;;;;;;5032048;28;20109;-88
2022/07/02 11:35:23;;;;;;;0.45;0.20;;;23.80;86.40;;;;;;5016845;28;20060;-88
2022/07/02 11:37:54;;;;;;;0.60;0.30;;;23.90;87.00;;;;;;5020092;28;20038;-87
2022/07/02 11:40:20;;;;;;;0.97;0.30;;;23.90;88.90;;;;;;5014132;28;20041;-88
2022/07/02 11:42:46;;;;;;;0.22;0.20;;;24.10;88.40;;;;;;5029911;28;20025;-87
2022/07/02 11:45:12;;;;;;;1.65;0.30;;;24.10;84.90;;;;;;5026022;28;20115;-87
2022/07/02 11:47:49;;;;;;;0.30;0.20;;;24.10;85.70;;;;;;5032333;28;20017;-88
2022/07/02 11:50:25;;;;;;;2.00;0.52;;;24.10;84.40;;;;;;5028954;28;20036;-87
2022/07/02 11:52:51;;;;;;;0.60;0.40;;;24.00;84.70;;;;;;5029519;28;20037;-87
2022/07/02 11:55:16;;;;;;;1.25;0.43;;;24.00;82.80;;;;;;5022415;28;20168;-88
2022/07/02 11:57:43;;;;;;;1.33;0.68;;;24.10;83.70;;;;;;5025351;28;20025;-87
2022/07/02 12:00:09;;;;;;;0.70;0.25;;;24.20;84.10;;;;;;5023666;28;20033;-88
2022/07/02 12:02:39;;;;;;;0.60;0.20;;;24.30;83.80;;;;;;5023239;28;20022;-89
2022/07/02 12:05:17;;;;;;;0.40;0.20;;;24.20;83.60;;;;;;5029503;28;20029;-88
2022/07/02 12:07:43;;;;;;;1.15;0.35;;;24.20;83.70;;;;;;5021548;28;20105;-88
2022/07/02 12:10:11;;;;;;;2.00;0.40;;;24.20;83.20;;;;;;5033093;28;20037;-89
2022/07/02 12:12:36;;;;;;;1.58;0.30;;;24.30;83.60;;;;;;5027161;28;20037;-90
2022/07/02 12:15:03;;;;;;;0.25;0.20;;;24.50;81.90;;;;;;5027023;28;20112;-88
2022/07/02 12:17:30;;;;;;;2.33;0.50;;;24.40;79.70;;;;;;5026353;28;20021;-89
2022/07/02 12:19:56;;;;;;;0.20;0.20;;;24.40;78.50;;;;;;5023643;28;20022;-90
2022/07/02 12:22:28;;;;;;;1.05;0.40;;;24.30;80.20;;;;;;5029253;28;20025;-88
2022/07/02 12:24:53;;;;;;;1.08;0.40;;;24.50;81.60;;;;;;5018164;28;20025;-88
2022/07/02 12:27:23;;;;;;;0.28;0.28;;;24.70;81.50;;;;;;5027733;28;20048;-89
2022/07/02 12:29:58;;;;;;;1.75;0.30;;;24.80;82.00;;;;;;5022825;28;20411;-88
2022/07/02 12:32:31;;;;;;;0.70;0.43;;;24.80;80.50;;;;;;5023951;28;20127;-89
2022/07/02 12:35:10;;;;;;;0.22;0.13;;;24.70;79.80;;;;;;5031167;28;20061;-88
2022/07/02 12:37:44;;;;;;;0.75;0.30;;;24.70;80.10;;;;;;5025016;28;20021;-87
2022/07/02 12:40:17;;;;;;;0.28;0.20;;;24.70;78.00;;;;;;5027580;28;20083;-88
2022/07/02 12:42:52;;;;;;;2.63;0.40;;;24.80;78.00;;;;;;5025735;28;20511;-89
2022/07/02 12:45:38;;;;;;;0.50;0.20;;;25.10;78.30;;;;;;5016985;28;20048;-88
2022/07/02 12:48:06;;;;;;;0.43;0.30;;;25.20;75.60;;;;;;5023002;28;20021;-89
2022/07/02 12:50:34;;;;;;;2.28;0.40;;;25.30;75.70;;;;;;5022694;28;20034;-89
2022/07/02 12:53:06;;;;;;;1.13;0.20;;;25.50;73.10;;;;;;5017743;28;20033;-89
2022/07/02 12:55:34;;;;;;;0.68;0.30;;;25.70;74.30;;;;;;5024744;28;20053;-89